Terminal Aerodrome Forecast
Issued by NWS

Home | Current Version | Previous Version | Text Only | Print | Product List | Glossary On
Versions: 1 2 3 4 5 6 7 8 9 10 11 12
786
FTUS44 KBMX 291121
TAFMGM
TAF
KMGM 291121Z 2912/3012 12004KT 6SM -RA BKN025
     FM291500 13005KT 6SM SHRA VCTS BKN015CB OVC040
     FM300500 16002KT 6SM BR VCSH OVC007 PROB30 3009/3012 4SM TSRA
      BKN007CB OVC025=

USA.gov is the U.S. government's official web portal to all federal, state and local government web resources and services.